UAE2901 OPKC-OMDB
Flight info
| Callsign | UAE2901 |
|---|---|
| Flight time | 1h 47m |
| Altitude | 38000 |
| Route | MELOM1G MELOM A454 PASOV B540 KUPMA/N0452F240 B540 MIVEK P574 IMPED IMPED3C |
| Aircraft | B77W/H-SDE1E2E3FGHIJ2J3J4J5M1RWXY/LB1D1 |
Departure
| Time | 2026-04-26 12:54 |
|---|---|
| Airport | Jinnah International Airport (OPKC) |
Arrival
| Time | 2026-04-26 14:41 |
|---|---|
| Airport | Dubai International Airport (OMDB) |
| Time | Latitude | Longitude | Altitude | Speed | Heading |
|---|---|---|---|---|---|
| 2026-04-26 12:33 | 24.90297 | 67.16842 | 104 ft | 0 kts | 127° |
| 2026-04-26 12:46 | 24.90298 | 67.16841 | 104 ft | 1 kts | 127° |
| 2026-04-26 12:47 | 24.90308 | 67.16828 | 105 ft | 3 kts | 143° |
| 2026-04-26 12:47 | 24.90325 | 67.16818 | 105 ft | 3 kts | 172° |
| 2026-04-26 12:47 | 24.90345 | 67.16818 | 102 ft | 3 kts | 193° |
| 2026-04-26 12:47 | 24.90364 | 67.16825 | 103 ft | 3 kts | 206° |
| 2026-04-26 12:48 | 24.90381 | 67.16836 | 103 ft | 3 kts | 217° |
| 2026-04-26 12:48 | 24.90396 | 67.16850 | 102 ft | 3 kts | 232° |
| 2026-04-26 12:48 | 24.90405 | 67.16865 | 105 ft | 1 kts | 253° |
| 2026-04-26 12:48 | 24.90406 | 67.16867 | 105 ft | 0 kts | 255° |
| 2026-04-26 12:50 | 24.90405 | 67.16864 | 105 ft | 2 kts | 255° |
| 2026-04-26 12:51 | 24.90390 | 67.16801 | 105 ft | 15 kts | 258° |
| 2026-04-26 12:51 | 24.90427 | 67.16716 | 106 ft | 7 kts | 344° |
| 2026-04-26 12:51 | 24.90468 | 67.16728 | 107 ft | 12 kts | 29° |
| 2026-04-26 12:51 | 24.90527 | 67.16903 | 108 ft | 29 kts | 73° |
| 2026-04-26 12:52 | 24.90599 | 67.17171 | 108 ft | 43 kts | 73° |
| 2026-04-26 12:52 | 24.90659 | 67.17373 | 108 ft | 37 kts | 60° |
| 2026-04-26 12:52 | 24.90749 | 67.17459 | 110 ft | 0 kts | 29° |
| 2026-04-26 12:52 | 24.90768 | 67.17470 | 110 ft | 9 kts | 23° |
| 2026-04-26 12:53 | 24.90847 | 67.17446 | 110 ft | 15 kts | 295° |
| 2026-04-26 12:53 | 24.90836 | 67.17325 | 111 ft | 12 kts | 254° |
| 2026-04-26 12:53 | 24.90741 | 67.16948 | 109 ft | 108 kts | 254° |
| 2026-04-26 12:53 | 24.90454 | 67.15739 | 241 ft | 208 kts | 255° |
| 2026-04-26 12:54 | 24.90046 | 67.14125 | 1633 ft | 221 kts | 253° |
| 2026-04-26 12:54 | 24.89544 | 67.12589 | 3845 ft | 205 kts | 248° |
| 2026-04-26 12:54 | 24.88766 | 67.11219 | 5594 ft | 217 kts | 232° |
| 2026-04-26 12:54 | 24.87622 | 67.09920 | 6384 ft | 266 kts | 222° |
| 2026-04-26 12:55 | 24.86040 | 67.08493 | 7018 ft | 308 kts | 221° |
| 2026-04-26 12:55 | 24.84443 | 67.06974 | 7386 ft | 303 kts | 224° |
| 2026-04-26 12:55 | 24.82941 | 67.05371 | 7126 ft | 300 kts | 227° |
| 2026-04-26 12:55 | 24.81500 | 67.03737 | 6968 ft | 291 kts | 227° |
| 2026-04-26 12:56 | 24.80158 | 67.02188 | 7109 ft | 275 kts | 227° |
| 2026-04-26 12:56 | 24.78879 | 67.00645 | 7362 ft | 273 kts | 236° |
| 2026-04-26 12:56 | 24.78177 | 66.98714 | 8255 ft | 275 kts | 259° |
| 2026-04-26 12:56 | 24.78163 | 66.96566 | 9098 ft | 285 kts | 276° |
| 2026-04-26 12:57 | 24.78419 | 66.94387 | 9973 ft | 294 kts | 276° |
| 2026-04-26 12:57 | 24.78689 | 66.92071 | 10532 ft | 317 kts | 276° |
| 2026-04-26 12:57 | 24.78978 | 66.89530 | 10760 ft | 350 kts | 276° |
| 2026-04-26 12:58 | 24.79592 | 66.83854 | 11784 ft | 389 kts | 276° |
| 2026-04-26 12:58 | 24.80097 | 66.80931 | 12460 ft | 393 kts | 290° |
| 2026-04-26 12:58 | 24.81474 | 66.78341 | 13293 ft | 400 kts | 311° |
| 2026-04-26 12:58 | 24.83462 | 66.76194 | 14077 ft | 403 kts | 317° |
| 2026-04-26 12:59 | 24.85539 | 66.74058 | 14876 ft | 409 kts | 317° |
| 2026-04-26 12:59 | 24.87632 | 66.71893 | 15755 ft | 413 kts | 317° |
| 2026-04-26 12:59 | 24.89715 | 66.69722 | 16559 ft | 418 kts | 316° |
| 2026-04-26 12:59 | 24.91836 | 66.67497 | 16773 ft | 422 kts | 316° |
| 2026-04-26 13:00 | 24.93941 | 66.65277 | 16761 ft | 422 kts | 316° |
| 2026-04-26 13:00 | 24.96056 | 66.63040 | 16754 ft | 420 kts | 316° |
| 2026-04-26 13:00 | 24.98174 | 66.60795 | 16754 ft | 420 kts | 316° |
| 2026-04-26 13:00 | 25.00267 | 66.58577 | 16756 ft | 420 kts | 316° |
| 2026-04-26 13:01 | 25.02380 | 66.56336 | 16759 ft | 420 kts | 316° |
| 2026-04-26 13:01 | 25.04472 | 66.54093 | 16740 ft | 415 kts | 313° |
| 2026-04-26 13:01 | 25.06124 | 66.51484 | 16756 ft | 416 kts | 294° |
| 2026-04-26 13:01 | 25.06945 | 66.48469 | 16759 ft | 416 kts | 282° |
| 2026-04-26 13:02 | 25.07584 | 66.45309 | 16761 ft | 423 kts | 283° |
| 2026-04-26 13:02 | 25.08247 | 66.42179 | 16753 ft | 422 kts | 283° |
| 2026-04-26 13:02 | 25.08932 | 66.39025 | 16740 ft | 420 kts | 283° |
| 2026-04-26 13:02 | 25.09620 | 66.35894 | 16792 ft | 421 kts | 284° |
| 2026-04-26 13:03 | 25.10322 | 66.32719 | 17467 ft | 428 kts | 284° |
| 2026-04-26 13:03 | 25.11023 | 66.29551 | 18350 ft | 430 kts | 284° |
| 2026-04-26 13:03 | 25.11736 | 66.26329 | 19189 ft | 431 kts | 283° |
| 2026-04-26 13:03 | 25.12453 | 66.23090 | 19999 ft | 434 kts | 283° |
| 2026-04-26 13:04 | 25.13165 | 66.19866 | 20722 ft | 438 kts | 283° |
| 2026-04-26 13:04 | 25.13890 | 66.16577 | 21476 ft | 442 kts | 283° |
| 2026-04-26 13:04 | 25.14620 | 66.13264 | 22244 ft | 445 kts | 283° |
| 2026-04-26 13:04 | 25.15355 | 66.09923 | 22995 ft | 448 kts | 283° |
| 2026-04-26 13:05 | 25.16086 | 66.06597 | 23628 ft | 452 kts | 283° |
| 2026-04-26 13:05 | 25.16834 | 66.03190 | 24142 ft | 457 kts | 283° |
| 2026-04-26 13:05 | 25.17585 | 65.99768 | 24798 ft | 458 kts | 283° |
| 2026-04-26 13:05 | 25.18328 | 65.96376 | 25384 ft | 460 kts | 283° |
| 2026-04-26 13:06 | 25.19081 | 65.92935 | 26026 ft | 462 kts | 283° |
| 2026-04-26 13:06 | 25.19839 | 65.89468 | 26674 ft | 463 kts | 283° |
| 2026-04-26 13:06 | 25.20599 | 65.85984 | 27104 ft | 470 kts | 283° |
| 2026-04-26 13:06 | 25.21361 | 65.82489 | 27667 ft | 473 kts | 283° |
| 2026-04-26 13:07 | 25.22134 | 65.78939 | 28291 ft | 474 kts | 283° |
| 2026-04-26 13:07 | 25.22907 | 65.75387 | 28793 ft | 478 kts | 283° |
| 2026-04-26 13:07 | 25.23691 | 65.71777 | 29259 ft | 481 kts | 283° |
| 2026-04-26 13:07 | 25.24470 | 65.68184 | 29643 ft | 487 kts | 283° |
| 2026-04-26 13:08 | 25.25262 | 65.64527 | 30150 ft | 487 kts | 283° |
| 2026-04-26 13:08 | 25.26039 | 65.60938 | 30728 ft | 483 kts | 284° |
| 2026-04-26 13:08 | 25.26823 | 65.57308 | 31249 ft | 483 kts | 284° |
| 2026-04-26 13:08 | 25.27597 | 65.53723 | 31687 ft | 484 kts | 284° |
| 2026-04-26 13:09 | 25.28377 | 65.50103 | 32231 ft | 482 kts | 284° |
| 2026-04-26 13:09 | 25.29154 | 65.46494 | 32865 ft | 478 kts | 284° |
| 2026-04-26 13:09 | 25.29921 | 65.42929 | 33412 ft | 476 kts | 284° |
| 2026-04-26 13:09 | 25.30675 | 65.39421 | 33912 ft | 475 kts | 284° |
| 2026-04-26 13:10 | 25.31436 | 65.35870 | 34336 ft | 474 kts | 284° |
| 2026-04-26 13:10 | 25.32193 | 65.32331 | 34786 ft | 472 kts | 284° |
| 2026-04-26 13:10 | 25.32947 | 65.28798 | 35261 ft | 468 kts | 284° |
| 2026-04-26 13:10 | 25.33689 | 65.25315 | 35886 ft | 462 kts | 284° |
| 2026-04-26 13:11 | 25.34417 | 65.21895 | 36324 ft | 461 kts | 284° |
| 2026-04-26 13:11 | 25.35157 | 65.18423 | 36659 ft | 462 kts | 284° |
| 2026-04-26 13:11 | 25.35886 | 65.14990 | 36982 ft | 462 kts | 284° |
| 2026-04-26 13:11 | 25.36621 | 65.11528 | 37360 ft | 461 kts | 284° |
| 2026-04-26 13:12 | 25.37349 | 65.08091 | 37702 ft | 461 kts | 284° |
| 2026-04-26 13:12 | 25.38090 | 65.04597 | 37739 ft | 466 kts | 284° |
| 2026-04-26 13:12 | 25.39566 | 64.97608 | 37764 ft | 463 kts | 284° |
| 2026-04-26 13:13 | 25.41010 | 64.90735 | 37756 ft | 459 kts | 283° |
| 2026-04-26 13:13 | 25.41340 | 64.83689 | 37773 ft | 463 kts | 267° |
| 2026-04-26 13:14 | 25.40022 | 64.76718 | 37775 ft | 467 kts | 256° |
| 2026-04-26 13:14 | 25.38055 | 64.69834 | 37765 ft | 469 kts | 255° |
| 2026-04-26 13:15 | 25.36077 | 64.62962 | 37769 ft | 470 kts | 255° |
| 2026-04-26 13:15 | 25.34135 | 64.56078 | 37771 ft | 471 kts | 256° |
| 2026-04-26 13:16 | 25.32186 | 64.49105 | 37769 ft | 472 kts | 256° |
| 2026-04-26 13:16 | 25.30258 | 64.42195 | 37767 ft | 472 kts | 256° |
| 2026-04-26 13:17 | 25.27346 | 64.31796 | 37759 ft | 472 kts | 256° |
| 2026-04-26 13:18 | 25.24425 | 64.21404 | 37764 ft | 472 kts | 256° |
| 2026-04-26 13:19 | 25.21509 | 64.11059 | 37765 ft | 472 kts | 256° |
| 2026-04-26 13:19 | 25.19545 | 64.04110 | 37751 ft | 472 kts | 256° |
| 2026-04-26 13:20 | 25.17594 | 63.97219 | 37759 ft | 471 kts | 256° |
| 2026-04-26 13:20 | 25.15640 | 63.90333 | 37762 ft | 471 kts | 256° |
| 2026-04-26 13:21 | 25.13682 | 63.83442 | 37754 ft | 471 kts | 256° |
| 2026-04-26 13:21 | 25.11707 | 63.76509 | 37758 ft | 471 kts | 256° |
| 2026-04-26 13:22 | 25.09744 | 63.69628 | 37759 ft | 471 kts | 256° |
| 2026-04-26 13:22 | 25.07782 | 63.62767 | 37754 ft | 470 kts | 256° |
| 2026-04-26 13:23 | 25.05805 | 63.55866 | 37753 ft | 470 kts | 256° |
| 2026-04-26 13:23 | 25.03841 | 63.49022 | 37756 ft | 470 kts | 256° |
| 2026-04-26 13:24 | 25.01861 | 63.42136 | 37761 ft | 469 kts | 256° |
| 2026-04-26 13:24 | 24.99890 | 63.35294 | 37755 ft | 469 kts | 256° |
| 2026-04-26 13:25 | 24.97911 | 63.28439 | 37753 ft | 468 kts | 256° |
| 2026-04-26 13:25 | 24.95938 | 63.21619 | 37760 ft | 468 kts | 256° |
| 2026-04-26 13:26 | 24.93964 | 63.14804 | 37758 ft | 468 kts | 256° |
| 2026-04-26 13:26 | 24.91989 | 63.08003 | 37761 ft | 467 kts | 256° |
| 2026-04-26 13:27 | 24.90002 | 63.01170 | 37752 ft | 467 kts | 256° |
| 2026-04-26 13:27 | 24.88012 | 62.94343 | 37755 ft | 466 kts | 256° |
| 2026-04-26 13:28 | 24.86032 | 62.87561 | 37761 ft | 466 kts | 256° |
| 2026-04-26 13:28 | 24.84046 | 62.80770 | 37753 ft | 466 kts | 256° |
| 2026-04-26 13:29 | 24.82063 | 62.74002 | 37758 ft | 466 kts | 256° |
| 2026-04-26 13:29 | 24.80064 | 62.67192 | 37756 ft | 466 kts | 256° |
| 2026-04-26 13:30 | 24.78070 | 62.60414 | 37748 ft | 467 kts | 256° |
| 2026-04-26 13:30 | 24.76060 | 62.53593 | 37761 ft | 467 kts | 256° |
| 2026-04-26 13:31 | 24.74055 | 62.46800 | 37757 ft | 468 kts | 256° |
| 2026-04-26 13:31 | 24.72042 | 62.39995 | 37764 ft | 468 kts | 256° |
| 2026-04-26 13:32 | 24.70027 | 62.33193 | 37763 ft | 469 kts | 256° |
| 2026-04-26 13:32 | 24.68008 | 62.26393 | 37758 ft | 469 kts | 256° |
| 2026-04-26 13:33 | 24.65981 | 62.19579 | 37752 ft | 469 kts | 256° |
| 2026-04-26 13:33 | 24.63951 | 62.12769 | 37756 ft | 469 kts | 256° |
| 2026-04-26 13:34 | 24.61913 | 62.05942 | 37755 ft | 468 kts | 256° |
| 2026-04-26 13:34 | 24.59886 | 61.99161 | 37759 ft | 468 kts | 256° |
| 2026-04-26 13:35 | 24.57856 | 61.92388 | 37756 ft | 468 kts | 256° |
| 2026-04-26 13:35 | 24.55831 | 61.85639 | 37758 ft | 467 kts | 256° |
| 2026-04-26 13:36 | 24.53790 | 61.78852 | 37762 ft | 467 kts | 256° |
| 2026-04-26 13:36 | 24.51748 | 61.72072 | 37759 ft | 467 kts | 256° |
| 2026-04-26 13:37 | 24.49716 | 61.65337 | 37761 ft | 467 kts | 256° |
| 2026-04-26 13:37 | 24.47673 | 61.58579 | 37759 ft | 467 kts | 256° |
| 2026-04-26 13:38 | 24.45964 | 61.52936 | 37760 ft | 467 kts | 256° |
| 2026-04-26 13:38 | 24.43572 | 61.45050 | 37762 ft | 467 kts | 256° |
| 2026-04-26 13:39 | 24.41862 | 61.39420 | 37761 ft | 467 kts | 256° |
| 2026-04-26 13:39 | 24.39844 | 61.32634 | 37762 ft | 465 kts | 259° |
| 2026-04-26 13:40 | 24.38374 | 61.25754 | 37761 ft | 463 kts | 262° |
| 2026-04-26 13:40 | 24.36982 | 61.18883 | 37764 ft | 463 kts | 262° |
| 2026-04-26 13:41 | 24.35567 | 61.11987 | 37764 ft | 463 kts | 262° |
| 2026-04-26 13:41 | 24.34137 | 61.05117 | 37770 ft | 463 kts | 262° |
| 2026-04-26 13:42 | 24.32701 | 60.98258 | 37771 ft | 462 kts | 262° |
| 2026-04-26 13:42 | 24.31261 | 60.91402 | 37773 ft | 462 kts | 262° |
| 2026-04-26 13:43 | 24.29817 | 60.84533 | 37767 ft | 462 kts | 262° |
| 2026-04-26 13:43 | 24.28367 | 60.77657 | 37766 ft | 462 kts | 262° |
| 2026-04-26 13:44 | 24.26920 | 60.70803 | 37776 ft | 462 kts | 262° |
| 2026-04-26 13:44 | 24.25470 | 60.63958 | 37771 ft | 462 kts | 262° |
| 2026-04-26 13:45 | 24.24017 | 60.57113 | 37770 ft | 462 kts | 262° |
| 2026-04-26 13:45 | 24.22564 | 60.50283 | 37781 ft | 462 kts | 262° |
| 2026-04-26 13:46 | 24.21093 | 60.43386 | 37768 ft | 462 kts | 262° |
| 2026-04-26 13:46 | 24.19632 | 60.36549 | 37777 ft | 462 kts | 262° |
| 2026-04-26 13:47 | 24.18169 | 60.29722 | 37778 ft | 462 kts | 262° |
| 2026-04-26 13:47 | 24.16694 | 60.22852 | 37778 ft | 462 kts | 262° |
| 2026-04-26 13:48 | 24.15226 | 60.16032 | 37777 ft | 462 kts | 262° |
| 2026-04-26 13:48 | 24.13753 | 60.09204 | 37778 ft | 461 kts | 262° |
| 2026-04-26 13:49 | 24.12269 | 60.02343 | 37777 ft | 461 kts | 262° |
| 2026-04-26 13:49 | 24.10793 | 59.95527 | 37782 ft | 460 kts | 262° |
| 2026-04-26 13:50 | 24.09316 | 59.88730 | 37786 ft | 460 kts | 262° |
| 2026-04-26 13:50 | 24.07828 | 59.81893 | 37782 ft | 460 kts | 262° |
| 2026-04-26 13:51 | 24.06346 | 59.75100 | 37781 ft | 459 kts | 262° |
| 2026-04-26 13:51 | 24.04865 | 59.68330 | 37782 ft | 459 kts | 262° |
| 2026-04-26 13:52 | 24.03369 | 59.61503 | 37782 ft | 459 kts | 262° |
| 2026-04-26 13:52 | 24.01887 | 59.54753 | 37786 ft | 459 kts | 262° |
| 2026-04-26 13:53 | 24.00387 | 59.47940 | 37786 ft | 459 kts | 262° |
| 2026-04-26 13:53 | 23.98893 | 59.41170 | 37786 ft | 459 kts | 262° |
| 2026-04-26 13:54 | 23.97389 | 59.34365 | 37793 ft | 459 kts | 262° |
| 2026-04-26 13:54 | 23.95888 | 59.27591 | 37789 ft | 459 kts | 262° |
| 2026-04-26 13:55 | 23.93912 | 59.18530 | 37784 ft | 456 kts | 266° |
| 2026-04-26 13:55 | 23.93997 | 59.10661 | 37799 ft | 443 kts | 283° |
| 2026-04-26 13:56 | 23.94709 | 59.07397 | 37784 ft | 438 kts | 291° |
| 2026-04-26 13:56 | 23.96763 | 59.01126 | 37780 ft | 438 kts | 293° |
| 2026-04-26 13:57 | 23.98850 | 58.94830 | 37790 ft | 439 kts | 292° |
| 2026-04-26 13:57 | 24.00882 | 58.88557 | 37804 ft | 440 kts | 292° |
| 2026-04-26 13:58 | 24.02912 | 58.82216 | 37793 ft | 441 kts | 292° |
| 2026-04-26 13:58 | 24.04933 | 58.75888 | 37789 ft | 440 kts | 292° |
| 2026-04-26 13:59 | 24.06942 | 58.69591 | 37789 ft | 440 kts | 292° |
| 2026-04-26 13:59 | 24.08953 | 58.63279 | 37788 ft | 439 kts | 292° |
| 2026-04-26 14:00 | 24.12958 | 58.50669 | 37792 ft | 438 kts | 292° |
| 2026-04-26 14:01 | 24.14958 | 58.44340 | 37791 ft | 438 kts | 291° |
| 2026-04-26 14:01 | 24.16949 | 58.38034 | 37798 ft | 438 kts | 291° |
| 2026-04-26 14:02 | 24.18930 | 58.31747 | 37791 ft | 438 kts | 291° |
| 2026-04-26 14:02 | 24.20918 | 58.25427 | 37790 ft | 437 kts | 291° |
| 2026-04-26 14:03 | 24.22893 | 58.19140 | 37794 ft | 437 kts | 291° |
| 2026-04-26 14:03 | 24.24866 | 58.12851 | 37798 ft | 437 kts | 291° |
| 2026-04-26 14:04 | 24.26830 | 58.06577 | 37789 ft | 436 kts | 291° |
| 2026-04-26 14:04 | 24.28792 | 58.00304 | 37795 ft | 436 kts | 291° |
| 2026-04-26 14:05 | 24.30764 | 57.93985 | 37792 ft | 436 kts | 291° |
| 2026-04-26 14:05 | 24.32721 | 57.87703 | 37795 ft | 436 kts | 291° |
| 2026-04-26 14:06 | 24.34676 | 57.81421 | 37795 ft | 437 kts | 291° |
| 2026-04-26 14:06 | 24.36642 | 57.75088 | 37798 ft | 436 kts | 291° |
| 2026-04-26 14:07 | 24.38579 | 57.68839 | 37391 ft | 432 kts | 291° |
| 2026-04-26 14:07 | 24.39539 | 57.65743 | 36961 ft | 434 kts | 291° |
| 2026-04-26 14:07 | 24.40515 | 57.62591 | 36498 ft | 437 kts | 290° |
| 2026-04-26 14:07 | 24.41498 | 57.59408 | 36045 ft | 439 kts | 290° |
| 2026-04-26 14:08 | 24.42472 | 57.56257 | 35610 ft | 441 kts | 290° |
| 2026-04-26 14:08 | 24.43466 | 57.53038 | 35174 ft | 443 kts | 290° |
| 2026-04-26 14:08 | 24.44444 | 57.49867 | 34721 ft | 444 kts | 290° |
| 2026-04-26 14:08 | 24.45448 | 57.46615 | 34196 ft | 448 kts | 290° |
| 2026-04-26 14:09 | 24.46443 | 57.43397 | 33656 ft | 451 kts | 290° |
| 2026-04-26 14:09 | 24.47454 | 57.40120 | 33017 ft | 454 kts | 290° |
| 2026-04-26 14:09 | 24.48474 | 57.36815 | 32521 ft | 454 kts | 289° |
| 2026-04-26 14:10 | 24.50483 | 57.30284 | 31985 ft | 455 kts | 289° |
| 2026-04-26 14:10 | 24.51494 | 57.26993 | 31480 ft | 460 kts | 289° |
| 2026-04-26 14:10 | 24.52527 | 57.23629 | 30958 ft | 465 kts | 288° |
| 2026-04-26 14:10 | 24.53557 | 57.20270 | 30509 ft | 468 kts | 288° |
| 2026-04-26 14:11 | 24.55632 | 57.13496 | 29983 ft | 465 kts | 288° |
| 2026-04-26 14:11 | 24.56661 | 57.10132 | 29744 ft | 463 kts | 288° |
| 2026-04-26 14:11 | 24.57690 | 57.06764 | 29502 ft | 461 kts | 288° |
| 2026-04-26 14:12 | 24.58698 | 57.03463 | 29266 ft | 460 kts | 288° |
| 2026-04-26 14:12 | 24.59715 | 57.00127 | 29011 ft | 458 kts | 288° |
| 2026-04-26 14:12 | 24.60730 | 56.96799 | 28767 ft | 457 kts | 287° |
| 2026-04-26 14:12 | 24.61740 | 56.93481 | 28528 ft | 456 kts | 287° |
| 2026-04-26 14:13 | 24.63762 | 56.86903 | 27058 ft | 452 kts | 289° |
| 2026-04-26 14:13 | 24.64989 | 56.83716 | 26351 ft | 449 kts | 293° |
| 2026-04-26 14:13 | 24.66442 | 56.80729 | 25655 ft | 446 kts | 298° |
| 2026-04-26 14:14 | 24.68075 | 56.77815 | 24970 ft | 443 kts | 299° |
| 2026-04-26 14:14 | 24.69670 | 56.74968 | 24360 ft | 439 kts | 298° |
| 2026-04-26 14:14 | 24.71261 | 56.72109 | 24144 ft | 440 kts | 298° |
| 2026-04-26 14:14 | 24.72841 | 56.69250 | 23989 ft | 439 kts | 298° |
| 2026-04-26 14:15 | 24.74425 | 56.66375 | 23851 ft | 433 kts | 298° |
| 2026-04-26 14:15 | 24.75983 | 56.63541 | 23831 ft | 429 kts | 298° |
| 2026-04-26 14:15 | 24.77508 | 56.60760 | 23843 ft | 431 kts | 298° |
| 2026-04-26 14:15 | 24.79061 | 56.57926 | 23857 ft | 433 kts | 298° |
| 2026-04-26 14:16 | 24.80627 | 56.55066 | 23840 ft | 433 kts | 298° |
| 2026-04-26 14:16 | 24.82168 | 56.52254 | 23836 ft | 432 kts | 298° |
| 2026-04-26 14:16 | 24.83729 | 56.49403 | 23840 ft | 432 kts | 298° |
| 2026-04-26 14:16 | 24.85266 | 56.46594 | 23838 ft | 432 kts | 298° |
| 2026-04-26 14:17 | 24.86796 | 56.43759 | 23834 ft | 428 kts | 295° |
| 2026-04-26 14:17 | 24.87933 | 56.40746 | 23840 ft | 424 kts | 284° |
| 2026-04-26 14:17 | 24.88556 | 56.37571 | 23845 ft | 423 kts | 276° |
| 2026-04-26 14:17 | 24.88720 | 56.34335 | 23834 ft | 421 kts | 265° |
| 2026-04-26 14:18 | 24.88366 | 56.31169 | 23843 ft | 421 kts | 260° |
| 2026-04-26 14:18 | 24.88078 | 56.27954 | 23836 ft | 421 kts | 269° |
| 2026-04-26 14:18 | 24.88471 | 56.24790 | 23854 ft | 419 kts | 283° |
| 2026-04-26 14:18 | 24.89533 | 56.21856 | 23856 ft | 404 kts | 294° |
| 2026-04-26 14:19 | 24.90923 | 56.19233 | 23852 ft | 386 kts | 297° |
| 2026-04-26 14:19 | 24.92243 | 56.16744 | 23846 ft | 370 kts | 296° |
| 2026-04-26 14:19 | 24.93482 | 56.14319 | 23843 ft | 355 kts | 295° |
| 2026-04-26 14:19 | 24.94664 | 56.11990 | 23840 ft | 341 kts | 295° |
| 2026-04-26 14:20 | 24.95794 | 56.09769 | 23843 ft | 327 kts | 295° |
| 2026-04-26 14:20 | 24.96890 | 56.07625 | 23846 ft | 315 kts | 295° |
| 2026-04-26 14:20 | 24.98132 | 56.05593 | 23861 ft | 324 kts | 305° |
| 2026-04-26 14:20 | 24.99654 | 56.03744 | 23870 ft | 326 kts | 309° |
| 2026-04-26 14:21 | 25.01218 | 56.01959 | 23862 ft | 326 kts | 309° |
| 2026-04-26 14:21 | 25.02777 | 56.00141 | 23854 ft | 324 kts | 308° |
| 2026-04-26 14:21 | 25.04305 | 55.98313 | 23865 ft | 323 kts | 307° |
| 2026-04-26 14:21 | 25.05815 | 55.96487 | 23851 ft | 321 kts | 307° |
| 2026-04-26 14:22 | 25.07293 | 55.94687 | 23618 ft | 319 kts | 307° |
| 2026-04-26 14:22 | 25.08770 | 55.92873 | 23285 ft | 317 kts | 307° |
| 2026-04-26 14:22 | 25.10246 | 55.91057 | 22870 ft | 316 kts | 307° |
| 2026-04-26 14:22 | 25.11223 | 55.89856 | 22601 ft | 315 kts | 307° |
| 2026-04-26 14:23 | 25.13162 | 55.87474 | 22107 ft | 313 kts | 307° |
| 2026-04-26 14:23 | 25.14617 | 55.85687 | 21756 ft | 311 kts | 307° |
| 2026-04-26 14:23 | 25.15572 | 55.84505 | 21507 ft | 309 kts | 306° |
| 2026-04-26 14:23 | 25.16810 | 55.82586 | 21138 ft | 305 kts | 297° |
| 2026-04-26 14:24 | 25.17895 | 55.80564 | 20767 ft | 303 kts | 296° |
| 2026-04-26 14:24 | 25.18955 | 55.78582 | 20392 ft | 303 kts | 297° |
| 2026-04-26 14:24 | 25.20055 | 55.76542 | 19739 ft | 313 kts | 297° |
| 2026-04-26 14:24 | 25.21191 | 55.74473 | 19063 ft | 323 kts | 298° |
| 2026-04-26 14:25 | 25.22388 | 55.72313 | 18399 ft | 332 kts | 299° |
| 2026-04-26 14:25 | 25.23606 | 55.70130 | 17691 ft | 341 kts | 299° |
| 2026-04-26 14:25 | 25.24870 | 55.67871 | 16935 ft | 348 kts | 300° |
| 2026-04-26 14:25 | 25.26165 | 55.65556 | 16199 ft | 355 kts | 300° |
| 2026-04-26 14:26 | 25.27339 | 55.63210 | 15456 ft | 352 kts | 289° |
| 2026-04-26 14:26 | 25.27765 | 55.60529 | 14752 ft | 355 kts | 268° |
| 2026-04-26 14:26 | 25.27313 | 55.57860 | 14079 ft | 359 kts | 250° |
| 2026-04-26 14:26 | 25.26098 | 55.55411 | 13391 ft | 365 kts | 234° |
| 2026-04-26 14:27 | 25.24263 | 55.53475 | 12622 ft | 370 kts | 213° |
| 2026-04-26 14:27 | 25.21823 | 55.52561 | 11879 ft | 380 kts | 187° |
| 2026-04-26 14:27 | 25.19210 | 55.52905 | 11175 ft | 388 kts | 162° |
| 2026-04-26 14:27 | 25.16905 | 55.54478 | 10479 ft | 394 kts | 136° |
| 2026-04-26 14:28 | 25.15388 | 55.57000 | 9794 ft | 396 kts | 110° |
| 2026-04-26 14:28 | 25.14819 | 55.59911 | 9078 ft | 387 kts | 94° |
| 2026-04-26 14:28 | 25.14629 | 55.62883 | 8361 ft | 388 kts | 94° |
| 2026-04-26 14:28 | 25.14189 | 55.65810 | 7652 ft | 391 kts | 103° |
| 2026-04-26 14:29 | 25.13498 | 55.68686 | 6941 ft | 385 kts | 101° |
| 2026-04-26 14:29 | 25.12867 | 55.71558 | 6427 ft | 382 kts | 105° |
| 2026-04-26 14:29 | 25.11916 | 55.74262 | 6212 ft | 368 kts | 113° |
| 2026-04-26 14:29 | 25.10867 | 55.76762 | 6035 ft | 356 kts | 115° |
| 2026-04-26 14:30 | 25.09720 | 55.79128 | 6009 ft | 341 kts | 119° |
| 2026-04-26 14:30 | 25.08532 | 55.81328 | 5983 ft | 322 kts | 124° |
| 2026-04-26 14:30 | 25.07012 | 55.82987 | 5992 ft | 304 kts | 150° |
| 2026-04-26 14:30 | 25.05093 | 55.83770 | 6003 ft | 285 kts | 175° |
| 2026-04-26 14:31 | 25.03158 | 55.83807 | 5889 ft | 273 kts | 189° |
| 2026-04-26 14:31 | 25.01325 | 55.83393 | 5515 ft | 269 kts | 206° |
| 2026-04-26 14:31 | 24.99883 | 55.82181 | 5121 ft | 258 kts | 242° |
| 2026-04-26 14:31 | 24.99440 | 55.80344 | 4783 ft | 246 kts | 279° |
| 2026-04-26 14:32 | 25.00135 | 55.78699 | 4511 ft | 238 kts | 315° |
| 2026-04-26 14:32 | 25.01601 | 55.77901 | 4158 ft | 235 kts | 344° |
| 2026-04-26 14:32 | 25.03007 | 55.77178 | 4104 ft | 225 kts | 315° |
| 2026-04-26 14:32 | 25.03867 | 55.75737 | 4041 ft | 226 kts | 297° |
| 2026-04-26 14:33 | 25.04548 | 55.74190 | 4016 ft | 226 kts | 297° |
| 2026-04-26 14:33 | 25.05286 | 55.72651 | 4008 ft | 226 kts | 300° |
| 2026-04-26 14:33 | 25.06065 | 55.71144 | 4002 ft | 225 kts | 301° |
| 2026-04-26 14:33 | 25.06849 | 55.69676 | 3996 ft | 224 kts | 300° |
| 2026-04-26 14:34 | 25.07651 | 55.68190 | 4009 ft | 224 kts | 302° |
| 2026-04-26 14:34 | 25.08462 | 55.66715 | 4006 ft | 224 kts | 301° |
| 2026-04-26 14:34 | 25.09265 | 55.65265 | 4002 ft | 224 kts | 301° |
| 2026-04-26 14:34 | 25.10081 | 55.63796 | 3999 ft | 224 kts | 301° |
| 2026-04-26 14:35 | 25.10906 | 55.62318 | 4009 ft | 225 kts | 302° |
| 2026-04-26 14:35 | 25.11738 | 55.60869 | 4008 ft | 226 kts | 302° |
| 2026-04-26 14:35 | 25.12572 | 55.59392 | 3887 ft | 227 kts | 302° |
| 2026-04-26 14:35 | 25.13401 | 55.57902 | 3613 ft | 226 kts | 301° |
| 2026-04-26 14:36 | 25.14204 | 55.56453 | 3341 ft | 218 kts | 301° |
| 2026-04-26 14:36 | 25.14962 | 55.55087 | 3066 ft | 197 kts | 301° |
| 2026-04-26 14:36 | 25.15639 | 55.53867 | 2839 ft | 174 kts | 301° |
| 2026-04-26 14:36 | 25.16219 | 55.52817 | 2635 ft | 148 kts | 301° |
| 2026-04-26 14:37 | 25.16722 | 55.51907 | 2446 ft | 132 kts | 302° |
| 2026-04-26 14:37 | 25.17199 | 55.51049 | 2301 ft | 130 kts | 302° |
| 2026-04-26 14:37 | 25.17668 | 55.50199 | 2143 ft | 132 kts | 302° |
| 2026-04-26 14:37 | 25.18150 | 55.49329 | 1973 ft | 132 kts | 301° |
| 2026-04-26 14:38 | 25.18629 | 55.48467 | 1804 ft | 130 kts | 301° |
| 2026-04-26 14:38 | 25.19105 | 55.47606 | 1648 ft | 132 kts | 300° |
| 2026-04-26 14:38 | 25.19577 | 55.46750 | 1463 ft | 131 kts | 300° |
| 2026-04-26 14:38 | 25.20056 | 55.45886 | 1305 ft | 135 kts | 301° |
| 2026-04-26 14:39 | 25.20553 | 55.44992 | 1150 ft | 137 kts | 301° |
| 2026-04-26 14:39 | 25.21038 | 55.44109 | 961 ft | 134 kts | 301° |
| 2026-04-26 14:39 | 25.21535 | 55.43212 | 806 ft | 136 kts | 301° |
| 2026-04-26 14:39 | 25.22033 | 55.42319 | 663 ft | 142 kts | 300° |
| 2026-04-26 14:40 | 25.22549 | 55.41380 | 456 ft | 141 kts | 299° |
| 2026-04-26 14:40 | 25.23042 | 55.40482 | 226 ft | 133 kts | 300° |
| 2026-04-26 14:40 | 25.23513 | 55.39627 | 96 ft | 133 kts | 300° |
| 2026-04-26 14:40 | 25.23988 | 55.38770 | 27 ft | 109 kts | 302° |
| 2026-04-26 14:41 | 25.24195 | 55.38395 | 27 ft | 48 kts | 301° |
| 2026-04-26 14:41 | 25.24363 | 55.38086 | 27 ft | 44 kts | 302° |
| 2026-04-26 14:41 | 25.24457 | 55.37918 | 27 ft | 18 kts | 301° |
| 2026-04-26 14:41 | 25.24524 | 55.37798 | 27 ft | 18 kts | 301° |
| 2026-04-26 14:42 | 25.24588 | 55.37657 | 27 ft | 28 kts | 288° |
| 2026-04-26 14:42 | 25.24619 | 55.37362 | 27 ft | 49 kts | 272° |
| 2026-04-26 14:42 | 25.24728 | 55.37075 | 27 ft | 44 kts | 302° |
| 2026-04-26 14:42 | 25.24745 | 55.36926 | 27 ft | 18 kts | 253° |
| 2026-04-26 14:43 | 25.24730 | 55.36844 | 27 ft | 0 kts | 238° |
| 2026-04-26 14:43 | 25.24729 | 55.36826 | 27 ft | 10 kts | 272° |
| 2026-04-26 14:43 | 25.24791 | 55.36696 | 27 ft | 30 kts | 289° |
| 2026-04-26 14:44 | 25.24869 | 55.36523 | 27 ft | 29 kts | 301° |
| 2026-04-26 14:44 | 25.24954 | 55.36369 | 27 ft | 11 kts | 301° |
| 2026-04-26 14:44 | 25.24994 | 55.36299 | 27 ft | 7 kts | 301° |
| 2026-04-26 14:44 | 25.25033 | 55.36228 | 27 ft | 12 kts | 301° |
| 2026-04-26 14:45 | 25.25081 | 55.36146 | 27 ft | 4 kts | 303° |
| 2026-04-26 14:45 | 25.25095 | 55.36120 | 27 ft | 6 kts | 301° |
| 2026-04-26 14:45 | 25.25178 | 55.35969 | 27 ft | 22 kts | 302° |
| 2026-04-26 14:45 | 25.25231 | 55.35877 | 27 ft | 7 kts | 302° |
| 2026-04-26 14:46 | 25.25164 | 55.35779 | 27 ft | 0 kts | 211° |
| 2026-04-26 14:46 | 25.25163 | 55.35778 | 27 ft | 0 kts | 211° |